UAL1164 KSFO-KLAX
Flight info
| Callsign | UAL1164 |
|---|---|
| Flight time | 0h 58m |
| Altitude | 35000 |
| Route | WESLA5 SUSEY EBAYE BURGL IRNMN2 |
| Aircraft | A20N/M-SDE2E3FGHIRWXY/LB1 |
Departure
| Time | 2026-04-22 16:46 |
|---|---|
| Airport | San Francisco International Airport (KSFO) |
Arrival
| Time | 2026-04-22 17:44 |
|---|---|
| Airport | Los Angeles International Airport (KLAX) |
| Time | Latitude | Longitude | Altitude | Speed | Heading |
|---|---|---|---|---|---|
| 2026-04-22 16:02 | 37.62052 | -122.38991 | 16 ft | 0 kts | 27° |
| 2026-04-22 16:32 | 37.62035 | -122.39002 | 15 ft | 4 kts | 33° |
| 2026-04-22 16:32 | 37.62012 | -122.39020 | 15 ft | 4 kts | 32° |
| 2026-04-22 16:32 | 37.61989 | -122.39037 | 14 ft | 4 kts | 19° |
| 2026-04-22 16:32 | 37.61968 | -122.39040 | 15 ft | 3 kts | 305° |
| 2026-04-22 16:33 | 37.61963 | -122.39031 | 15 ft | 0 kts | 298° |
| 2026-04-22 16:36 | 37.61979 | -122.39073 | 15 ft | 11 kts | 296° |
| 2026-04-22 16:37 | 37.62020 | -122.39168 | 15 ft | 9 kts | 300° |
| 2026-04-22 16:37 | 37.62079 | -122.39198 | 17 ft | 12 kts | 13° |
| 2026-04-22 16:37 | 37.62161 | -122.39147 | 15 ft | 15 kts | 28° |
| 2026-04-22 16:37 | 37.62235 | -122.39064 | 16 ft | 12 kts | 66° |
| 2026-04-22 16:38 | 37.62259 | -122.38979 | 15 ft | 0 kts | 73° |
| 2026-04-22 16:38 | 37.62261 | -122.38970 | 16 ft | 5 kts | 74° |
| 2026-04-22 16:38 | 37.62262 | -122.38904 | 14 ft | 10 kts | 109° |
| 2026-04-22 16:38 | 37.62224 | -122.38810 | 14 ft | 14 kts | 120° |
| 2026-04-22 16:39 | 37.62176 | -122.38700 | 17 ft | 14 kts | 118° |
| 2026-04-22 16:39 | 37.62132 | -122.38594 | 18 ft | 13 kts | 116° |
| 2026-04-22 16:39 | 37.62086 | -122.38489 | 19 ft | 14 kts | 119° |
| 2026-04-22 16:39 | 37.62044 | -122.38385 | 22 ft | 13 kts | 118° |
| 2026-04-22 16:40 | 37.62000 | -122.38283 | 25 ft | 14 kts | 118° |
| 2026-04-22 16:40 | 37.61948 | -122.38161 | 23 ft | 17 kts | 117° |
| 2026-04-22 16:40 | 37.61829 | -122.37862 | 18 ft | 22 kts | 113° |
| 2026-04-22 16:41 | 37.61772 | -122.37677 | 19 ft | 22 kts | 109° |
| 2026-04-22 16:41 | 37.61712 | -122.37495 | 19 ft | 23 kts | 116° |
| 2026-04-22 16:41 | 37.61643 | -122.37329 | 25 ft | 18 kts | 119° |
| 2026-04-22 16:41 | 37.61584 | -122.37188 | 22 ft | 19 kts | 118° |
| 2026-04-22 16:42 | 37.61522 | -122.37039 | 22 ft | 17 kts | 117° |
| 2026-04-22 16:42 | 37.61452 | -122.36908 | 21 ft | 19 kts | 130° |
| 2026-04-22 16:42 | 37.61367 | -122.36775 | 18 ft | 18 kts | 124° |
| 2026-04-22 16:42 | 37.61304 | -122.36630 | 18 ft | 20 kts | 118° |
| 2026-04-22 16:43 | 37.61233 | -122.36463 | 18 ft | 22 kts | 118° |
| 2026-04-22 16:43 | 37.61164 | -122.36300 | 17 ft | 21 kts | 117° |
| 2026-04-22 16:43 | 37.61101 | -122.36147 | 19 ft | 9 kts | 117° |
| 2026-04-22 16:43 | 37.61069 | -122.36072 | 19 ft | 10 kts | 118° |
| 2026-04-22 16:44 | 37.61051 | -122.35979 | 19 ft | 12 kts | 84° |
| 2026-04-22 16:44 | 37.61104 | -122.35902 | 18 ft | 9 kts | 30° |
| 2026-04-22 16:44 | 37.61166 | -122.35880 | 19 ft | 10 kts | 353° |
| 2026-04-22 16:44 | 37.61219 | -122.35955 | 17 ft | 14 kts | 297° |
| 2026-04-22 16:45 | 37.61223 | -122.35964 | 19 ft | 0 kts | 297° |
| 2026-04-22 16:45 | 37.61246 | -122.36020 | 15 ft | 34 kts | 296° |
| 2026-04-22 16:45 | 37.61470 | -122.36569 | 18 ft | 103 kts | 297° |
| 2026-04-22 16:45 | 37.61893 | -122.37566 | 19 ft | 154 kts | 297° |
| 2026-04-22 16:46 | 37.62468 | -122.38923 | 229 ft | 187 kts | 297° |
| 2026-04-22 16:46 | 37.63086 | -122.40411 | 1077 ft | 200 kts | 296° |
| 2026-04-22 16:46 | 37.63753 | -122.42025 | 1906 ft | 216 kts | 295° |
| 2026-04-22 16:46 | 37.64501 | -122.43750 | 2678 ft | 230 kts | 296° |
| 2026-04-22 16:47 | 37.65300 | -122.45515 | 3692 ft | 232 kts | 296° |
| 2026-04-22 16:47 | 37.66043 | -122.47165 | 4633 ft | 234 kts | 296° |
| 2026-04-22 16:47 | 37.66824 | -122.48988 | 5610 ft | 237 kts | 288° |
| 2026-04-22 16:47 | 37.67134 | -122.51009 | 6603 ft | 235 kts | 265° |
| 2026-04-22 16:48 | 37.66731 | -122.52995 | 7533 ft | 235 kts | 240° |
| 2026-04-22 16:48 | 37.65675 | -122.54538 | 8477 ft | 237 kts | 215° |
| 2026-04-22 16:48 | 37.64198 | -122.55336 | 9401 ft | 243 kts | 191° |
| 2026-04-22 16:48 | 37.62510 | -122.55210 | 10321 ft | 252 kts | 165° |
| 2026-04-22 16:49 | 37.60866 | -122.54296 | 11065 ft | 266 kts | 159° |
| 2026-04-22 16:49 | 37.59124 | -122.53271 | 11481 ft | 288 kts | 159° |
| 2026-04-22 16:49 | 37.57224 | -122.52168 | 11838 ft | 312 kts | 159° |
| 2026-04-22 16:49 | 37.55181 | -122.50994 | 12260 ft | 330 kts | 159° |
| 2026-04-22 16:50 | 37.53079 | -122.49787 | 13069 ft | 334 kts | 159° |
| 2026-04-22 16:50 | 37.50950 | -122.48542 | 13940 ft | 339 kts | 156° |
| 2026-04-22 16:50 | 37.48926 | -122.46953 | 14708 ft | 346 kts | 147° |
| 2026-04-22 16:50 | 37.47103 | -122.44933 | 15482 ft | 354 kts | 137° |
| 2026-04-22 16:51 | 37.45422 | -122.42616 | 16214 ft | 359 kts | 136° |
| 2026-04-22 16:51 | 37.43750 | -122.40318 | 16945 ft | 362 kts | 136° |
| 2026-04-22 16:51 | 37.42045 | -122.37990 | 17659 ft | 367 kts | 136° |
| 2026-04-22 16:51 | 37.40302 | -122.35621 | 18424 ft | 370 kts | 136° |
| 2026-04-22 16:52 | 37.38535 | -122.33224 | 19067 ft | 374 kts | 136° |
| 2026-04-22 16:52 | 37.36765 | -122.30822 | 19742 ft | 376 kts | 136° |
| 2026-04-22 16:52 | 37.34986 | -122.28409 | 20415 ft | 378 kts | 137° |
| 2026-04-22 16:52 | 37.33186 | -122.25969 | 21129 ft | 380 kts | 137° |
| 2026-04-22 16:53 | 37.31400 | -122.23550 | 21799 ft | 383 kts | 137° |
| 2026-04-22 16:53 | 37.29571 | -122.21076 | 22418 ft | 387 kts | 137° |
| 2026-04-22 16:53 | 37.27734 | -122.18590 | 23085 ft | 389 kts | 137° |
| 2026-04-22 16:53 | 37.25884 | -122.16092 | 23755 ft | 391 kts | 137° |
| 2026-04-22 16:54 | 37.24051 | -122.13616 | 24288 ft | 394 kts | 137° |
| 2026-04-22 16:54 | 37.22176 | -122.11085 | 24769 ft | 398 kts | 138° |
| 2026-04-22 16:54 | 37.20274 | -122.08520 | 25252 ft | 401 kts | 138° |
| 2026-04-22 16:54 | 37.18373 | -122.05959 | 25776 ft | 403 kts | 139° |
| 2026-04-22 16:55 | 37.16462 | -122.03384 | 26258 ft | 405 kts | 139° |
| 2026-04-22 16:55 | 37.14521 | -122.00774 | 26689 ft | 409 kts | 139° |
| 2026-04-22 16:55 | 37.12571 | -121.98156 | 27118 ft | 412 kts | 139° |
| 2026-04-22 16:55 | 37.10612 | -121.95525 | 27594 ft | 415 kts | 139° |
| 2026-04-22 16:56 | 37.08632 | -121.92867 | 28047 ft | 417 kts | 140° |
| 2026-04-22 16:56 | 37.06648 | -121.90205 | 28436 ft | 420 kts | 140° |
| 2026-04-22 16:56 | 37.04642 | -121.87517 | 28805 ft | 424 kts | 140° |
| 2026-04-22 16:56 | 37.02624 | -121.84817 | 29239 ft | 425 kts | 140° |
| 2026-04-22 16:57 | 37.00601 | -121.82109 | 29616 ft | 428 kts | 140° |
| 2026-04-22 16:57 | 36.98553 | -121.79371 | 29984 ft | 431 kts | 141° |
| 2026-04-22 16:57 | 36.96524 | -121.76662 | 30340 ft | 434 kts | 141° |
| 2026-04-22 16:57 | 36.94453 | -121.73897 | 30677 ft | 435 kts | 141° |
| 2026-04-22 16:58 | 36.93059 | -121.72038 | 30862 ft | 437 kts | 141° |
| 2026-04-22 16:58 | 36.90276 | -121.68333 | 31228 ft | 442 kts | 141° |
| 2026-04-22 16:58 | 36.88170 | -121.65530 | 31537 ft | 444 kts | 141° |
| 2026-04-22 16:58 | 36.86059 | -121.62720 | 31973 ft | 443 kts | 141° |
| 2026-04-22 16:59 | 36.83953 | -121.59920 | 32388 ft | 443 kts | 141° |
| 2026-04-22 16:59 | 36.81829 | -121.57100 | 32744 ft | 444 kts | 141° |
| 2026-04-22 16:59 | 36.79715 | -121.54297 | 33099 ft | 445 kts | 142° |
| 2026-04-22 16:59 | 36.77603 | -121.51499 | 33476 ft | 444 kts | 142° |
| 2026-04-22 17:00 | 36.75479 | -121.48686 | 33840 ft | 444 kts | 142° |
| 2026-04-22 17:00 | 36.71235 | -121.43078 | 34413 ft | 446 kts | 142° |
| 2026-04-22 17:00 | 36.69132 | -121.40302 | 34696 ft | 445 kts | 142° |
| 2026-04-22 17:01 | 36.67002 | -121.37492 | 34974 ft | 446 kts | 142° |
| 2026-04-22 17:01 | 36.64864 | -121.34677 | 35190 ft | 447 kts | 142° |
| 2026-04-22 17:01 | 36.60600 | -121.29064 | 35257 ft | 444 kts | 142° |
| 2026-04-22 17:02 | 36.56372 | -121.23507 | 35250 ft | 443 kts | 142° |
| 2026-04-22 17:02 | 36.52127 | -121.17942 | 35249 ft | 444 kts | 143° |
| 2026-04-22 17:03 | 36.47874 | -121.12374 | 35258 ft | 443 kts | 143° |
| 2026-04-22 17:03 | 36.43629 | -121.06821 | 35245 ft | 445 kts | 143° |
| 2026-04-22 17:04 | 36.39457 | -121.01035 | 35256 ft | 452 kts | 140° |
| 2026-04-22 17:04 | 36.35443 | -120.95143 | 35249 ft | 450 kts | 140° |
| 2026-04-22 17:05 | 36.31362 | -120.89241 | 35243 ft | 450 kts | 141° |
| 2026-04-22 17:05 | 36.27264 | -120.83369 | 35242 ft | 451 kts | 141° |
| 2026-04-22 17:06 | 36.23161 | -120.77505 | 35245 ft | 452 kts | 141° |
| 2026-04-22 17:06 | 36.19041 | -120.71624 | 35227 ft | 451 kts | 141° |
| 2026-04-22 17:07 | 36.14929 | -120.65765 | 35220 ft | 451 kts | 141° |
| 2026-04-22 17:07 | 36.10809 | -120.59909 | 35233 ft | 455 kts | 141° |
| 2026-04-22 17:08 | 36.06627 | -120.53972 | 35236 ft | 457 kts | 141° |
| 2026-04-22 17:08 | 36.02458 | -120.48058 | 35236 ft | 458 kts | 141° |
| 2026-04-22 17:09 | 35.98259 | -120.42122 | 35239 ft | 459 kts | 141° |
| 2026-04-22 17:09 | 35.94075 | -120.36212 | 35250 ft | 460 kts | 141° |
| 2026-04-22 17:10 | 35.89845 | -120.30256 | 35239 ft | 460 kts | 142° |
| 2026-04-22 17:10 | 35.86038 | -120.25797 | 35234 ft | 448 kts | 152° |
| 2026-04-22 17:11 | 35.80942 | -120.21559 | 35235 ft | 438 kts | 159° |
| 2026-04-22 17:11 | 35.75744 | -120.17667 | 35232 ft | 439 kts | 159° |
| 2026-04-22 17:12 | 35.70498 | -120.13715 | 35232 ft | 441 kts | 159° |
| 2026-04-22 17:12 | 35.65263 | -120.09776 | 35234 ft | 441 kts | 159° |
| 2026-04-22 17:13 | 35.60061 | -120.05847 | 35240 ft | 442 kts | 159° |
| 2026-04-22 17:13 | 35.54803 | -120.01880 | 35231 ft | 443 kts | 159° |
| 2026-04-22 17:14 | 35.49529 | -119.97910 | 35234 ft | 444 kts | 159° |
| 2026-04-22 17:14 | 35.44896 | -119.94428 | 35240 ft | 445 kts | 159° |
| 2026-04-22 17:15 | 35.39567 | -119.90429 | 35235 ft | 446 kts | 159° |
| 2026-04-22 17:15 | 35.34266 | -119.86457 | 35230 ft | 447 kts | 159° |
| 2026-04-22 17:16 | 35.29016 | -119.82494 | 35237 ft | 451 kts | 156° |
| 2026-04-22 17:16 | 35.23949 | -119.77833 | 35217 ft | 456 kts | 153° |
| 2026-04-22 17:17 | 35.18916 | -119.73110 | 35100 ft | 456 kts | 153° |
| 2026-04-22 17:17 | 35.16402 | -119.70761 | 34873 ft | 455 kts | 153° |
| 2026-04-22 17:17 | 35.13894 | -119.68419 | 34525 ft | 455 kts | 153° |
| 2026-04-22 17:18 | 35.11360 | -119.66060 | 33821 ft | 458 kts | 153° |
| 2026-04-22 17:18 | 35.08823 | -119.63702 | 32881 ft | 461 kts | 153° |
| 2026-04-22 17:18 | 35.06295 | -119.61351 | 32129 ft | 460 kts | 153° |
| 2026-04-22 17:18 | 35.03741 | -119.58975 | 31341 ft | 460 kts | 152° |
| 2026-04-22 17:19 | 34.98713 | -119.54293 | 30368 ft | 447 kts | 152° |
| 2026-04-22 17:19 | 34.93819 | -119.49750 | 29198 ft | 437 kts | 152° |
| 2026-04-22 17:20 | 34.89020 | -119.45338 | 28076 ft | 425 kts | 153° |
| 2026-04-22 17:20 | 34.84311 | -119.41144 | 26996 ft | 414 kts | 153° |
| 2026-04-22 17:21 | 34.81986 | -119.39078 | 26466 ft | 410 kts | 153° |
| 2026-04-22 17:21 | 34.77427 | -119.35017 | 25416 ft | 403 kts | 153° |
| 2026-04-22 17:22 | 34.72941 | -119.31032 | 24751 ft | 400 kts | 154° |
| 2026-04-22 17:22 | 34.70674 | -119.29058 | 24360 ft | 399 kts | 154° |
| 2026-04-22 17:22 | 34.66255 | -119.25205 | 23463 ft | 390 kts | 154° |
| 2026-04-22 17:23 | 34.64059 | -119.23293 | 22877 ft | 387 kts | 154° |
| 2026-04-22 17:23 | 34.59698 | -119.19535 | 21770 ft | 381 kts | 154° |
| 2026-04-22 17:23 | 34.57536 | -119.17677 | 21280 ft | 377 kts | 154° |
| 2026-04-22 17:24 | 34.55395 | -119.15834 | 20804 ft | 378 kts | 153° |
| 2026-04-22 17:24 | 34.53280 | -119.13974 | 20346 ft | 376 kts | 153° |
| 2026-04-22 17:24 | 34.51197 | -119.12119 | 19874 ft | 372 kts | 153° |
| 2026-04-22 17:24 | 34.49112 | -119.10262 | 19399 ft | 369 kts | 152° |
| 2026-04-22 17:25 | 34.47043 | -119.08427 | 18980 ft | 369 kts | 152° |
| 2026-04-22 17:25 | 34.44972 | -119.06593 | 18562 ft | 366 kts | 152° |
| 2026-04-22 17:25 | 34.42922 | -119.04787 | 18062 ft | 362 kts | 153° |
| 2026-04-22 17:25 | 34.40879 | -119.03015 | 17458 ft | 361 kts | 153° |
| 2026-04-22 17:26 | 34.38840 | -119.01258 | 16933 ft | 359 kts | 152° |
| 2026-04-22 17:26 | 34.36806 | -118.99504 | 16429 ft | 356 kts | 152° |
| 2026-04-22 17:26 | 34.34793 | -118.97767 | 15945 ft | 353 kts | 152° |
| 2026-04-22 17:26 | 34.32824 | -118.96051 | 15490 ft | 354 kts | 150° |
| 2026-04-22 17:27 | 34.30850 | -118.94268 | 15045 ft | 355 kts | 150° |
| 2026-04-22 17:27 | 34.28888 | -118.92469 | 14595 ft | 352 kts | 149° |
| 2026-04-22 17:27 | 34.26953 | -118.90696 | 14148 ft | 349 kts | 149° |
| 2026-04-22 17:27 | 34.25009 | -118.88924 | 13695 ft | 345 kts | 149° |
| 2026-04-22 17:28 | 34.23155 | -118.87215 | 13485 ft | 326 kts | 149° |
| 2026-04-22 17:28 | 34.21594 | -118.85766 | 13280 ft | 313 kts | 149° |
| 2026-04-22 17:28 | 34.19876 | -118.84181 | 12931 ft | 308 kts | 149° |
| 2026-04-22 17:28 | 34.18200 | -118.82643 | 12691 ft | 303 kts | 149° |
| 2026-04-22 17:29 | 34.16500 | -118.81083 | 12552 ft | 310 kts | 147° |
| 2026-04-22 17:29 | 34.14858 | -118.79327 | 12354 ft | 310 kts | 144° |
| 2026-04-22 17:29 | 34.13292 | -118.77612 | 12063 ft | 307 kts | 144° |
| 2026-04-22 17:29 | 34.11713 | -118.75889 | 11677 ft | 306 kts | 143° |
| 2026-04-22 17:30 | 34.10139 | -118.74176 | 11289 ft | 304 kts | 143° |
| 2026-04-22 17:30 | 34.08566 | -118.72469 | 10892 ft | 303 kts | 143° |
| 2026-04-22 17:30 | 34.07007 | -118.70774 | 10517 ft | 301 kts | 143° |
| 2026-04-22 17:30 | 34.05489 | -118.69122 | 10269 ft | 288 kts | 142° |
| 2026-04-22 17:31 | 34.04013 | -118.67484 | 9881 ft | 289 kts | 137° |
| 2026-04-22 17:31 | 34.02958 | -118.65409 | 9491 ft | 294 kts | 111° |
| 2026-04-22 17:31 | 34.02606 | -118.62968 | 9117 ft | 295 kts | 98° |
| 2026-04-22 17:31 | 34.02398 | -118.60523 | 8748 ft | 293 kts | 98° |
| 2026-04-22 17:32 | 34.02179 | -118.58084 | 8391 ft | 291 kts | 98° |
| 2026-04-22 17:32 | 34.01958 | -118.55702 | 8047 ft | 289 kts | 98° |
| 2026-04-22 17:32 | 34.01736 | -118.53338 | 7719 ft | 286 kts | 98° |
| 2026-04-22 17:32 | 34.01513 | -118.50974 | 7461 ft | 279 kts | 98° |
| 2026-04-22 17:33 | 34.01369 | -118.49440 | 7366 ft | 268 kts | 98° |
| 2026-04-22 17:33 | 34.01109 | -118.46588 | 7162 ft | 251 kts | 95° |
| 2026-04-22 17:33 | 34.01197 | -118.44499 | 6852 ft | 249 kts | 79° |
| 2026-04-22 17:33 | 34.01569 | -118.42464 | 6529 ft | 247 kts | 77° |
| 2026-04-22 17:34 | 34.01929 | -118.40453 | 6213 ft | 245 kts | 78° |
| 2026-04-22 17:34 | 34.02273 | -118.38468 | 6022 ft | 238 kts | 78° |
| 2026-04-22 17:34 | 34.02615 | -118.36474 | 5995 ft | 244 kts | 78° |
| 2026-04-22 17:34 | 34.02868 | -118.34496 | 6000 ft | 241 kts | 84° |
| 2026-04-22 17:35 | 34.03061 | -118.32478 | 5997 ft | 242 kts | 84° |
| 2026-04-22 17:35 | 34.03259 | -118.30501 | 5997 ft | 242 kts | 83° |
| 2026-04-22 17:35 | 34.03463 | -118.28479 | 5795 ft | 243 kts | 83° |
| 2026-04-22 17:35 | 34.03663 | -118.26472 | 5490 ft | 240 kts | 83° |
| 2026-04-22 17:36 | 34.03861 | -118.24482 | 5185 ft | 238 kts | 84° |
| 2026-04-22 17:36 | 34.04061 | -118.22497 | 4850 ft | 237 kts | 84° |
| 2026-04-22 17:36 | 34.04261 | -118.20518 | 4467 ft | 238 kts | 84° |
| 2026-04-22 17:36 | 34.04462 | -118.18532 | 4084 ft | 239 kts | 84° |
| 2026-04-22 17:37 | 34.04659 | -118.16582 | 3796 ft | 234 kts | 84° |
| 2026-04-22 17:37 | 34.04852 | -118.14679 | 3546 ft | 222 kts | 84° |
| 2026-04-22 17:37 | 34.04884 | -118.12858 | 3287 ft | 220 kts | 105° |
| 2026-04-22 17:37 | 34.04160 | -118.11276 | 3045 ft | 214 kts | 139° |
| 2026-04-22 17:38 | 34.02898 | -118.10537 | 3021 ft | 203 kts | 169° |
| 2026-04-22 17:38 | 34.01493 | -118.10306 | 3002 ft | 204 kts | 184° |
| 2026-04-22 17:38 | 34.00176 | -118.10874 | 3002 ft | 204 kts | 219° |
| 2026-04-22 17:38 | 33.99249 | -118.12138 | 3020 ft | 195 kts | 231° |
| 2026-04-22 17:39 | 33.98427 | -118.13415 | 3004 ft | 194 kts | 231° |
| 2026-04-22 17:39 | 33.97594 | -118.14702 | 3003 ft | 194 kts | 231° |
| 2026-04-22 17:39 | 33.96062 | -118.17349 | 3002 ft | 195 kts | 246° |
| 2026-04-22 17:40 | 33.95707 | -118.18922 | 3006 ft | 196 kts | 259° |
| 2026-04-22 17:40 | 33.95540 | -118.20502 | 3002 ft | 185 kts | 263° |
| 2026-04-22 17:40 | 33.95389 | -118.22055 | 2870 ft | 186 kts | 261° |
| 2026-04-22 17:40 | 33.95233 | -118.23584 | 2610 ft | 179 kts | 262° |
| 2026-04-22 17:41 | 33.95086 | -118.25021 | 2402 ft | 172 kts | 261° |
| 2026-04-22 17:41 | 33.94942 | -118.26454 | 2160 ft | 170 kts | 262° |
| 2026-04-22 17:41 | 33.94802 | -118.27808 | 1920 ft | 161 kts | 261° |
| 2026-04-22 17:41 | 33.94669 | -118.29125 | 1710 ft | 158 kts | 262° |
| 2026-04-22 17:42 | 33.94537 | -118.30423 | 1487 ft | 154 kts | 262° |
| 2026-04-22 17:42 | 33.94410 | -118.31660 | 1260 ft | 143 kts | 262° |
| 2026-04-22 17:42 | 33.94334 | -118.32417 | 1135 ft | 133 kts | 261° |
| 2026-04-22 17:42 | 33.94187 | -118.33844 | 875 ft | 130 kts | 262° |
| 2026-04-22 17:43 | 33.94077 | -118.34923 | 709 ft | 126 kts | 261° |
| 2026-04-22 17:43 | 33.93971 | -118.35969 | 527 ft | 126 kts | 262° |
| 2026-04-22 17:43 | 33.93865 | -118.37003 | 369 ft | 124 kts | 263° |
| 2026-04-22 17:43 | 33.93769 | -118.38032 | 180 ft | 125 kts | 262° |
| 2026-04-22 17:44 | 33.93658 | -118.39042 | 126 ft | 116 kts | 259° |
| 2026-04-22 17:44 | 33.93577 | -118.39817 | 122 ft | 64 kts | 262° |
| 2026-04-22 17:44 | 33.93561 | -118.40106 | 125 ft | 21 kts | 275° |
| 2026-04-22 17:44 | 33.93594 | -118.40265 | 121 ft | 19 kts | 291° |
| 2026-04-22 17:45 | 33.93625 | -118.40415 | 124 ft | 16 kts | 269° |
| 2026-04-22 17:45 | 33.93615 | -118.40563 | 125 ft | 19 kts | 261° |
| 2026-04-22 17:45 | 33.93599 | -118.40694 | 125 ft | 14 kts | 263° |
| 2026-04-22 17:45 | 33.93596 | -118.40802 | 123 ft | 14 kts | 279° |
| 2026-04-22 17:46 | 33.93650 | -118.40888 | 123 ft | 10 kts | 338° |
| 2026-04-22 17:46 | 33.93730 | -118.40907 | 123 ft | 12 kts | 355° |
| 2026-04-22 17:46 | 33.93806 | -118.40916 | 124 ft | 9 kts | 352° |
| 2026-04-22 17:46 | 33.93862 | -118.40911 | 123 ft | 8 kts | 34° |
| 2026-04-22 17:47 | 33.93876 | -118.40860 | 125 ft | 3 kts | 91° |
| 2026-04-22 17:47 | 33.93876 | -118.40814 | 125 ft | 8 kts | 86° |
| 2026-04-22 17:47 | 33.93884 | -118.40749 | 123 ft | 8 kts | 80° |
| 2026-04-22 17:47 | 33.93894 | -118.40677 | 123 ft | 10 kts | 80° |
| 2026-04-22 17:48 | 33.93901 | -118.40613 | 123 ft | 13 kts | 84° |
| 2026-04-22 17:48 | 33.93915 | -118.40447 | 125 ft | 17 kts | 82° |
| 2026-04-22 17:48 | 33.93933 | -118.40299 | 125 ft | 17 kts | 82° |
| 2026-04-22 17:48 | 33.93947 | -118.40163 | 124 ft | 15 kts | 81° |
| 2026-04-22 17:49 | 33.93973 | -118.40069 | 122 ft | 12 kts | 29° |
| 2026-04-22 17:49 | 33.94043 | -118.40068 | 121 ft | 4 kts | 355° |
| 2026-04-22 17:49 | 33.94058 | -118.40053 | 123 ft | 0 kts | 52° |
| 2026-04-22 17:49 | 33.94065 | -118.40035 | 124 ft | 4 kts | 72° |
| 2026-04-22 17:50 | 33.94068 | -118.40007 | 125 ft | 0 kts | 80° |